Time;durP1;ratioP1;P1;durP2;ratioP2;P2;SDS_P1;SDS_P2;PMS_P1;PMS_P2;Temp;Humidity;BMP_temperature;BMP_pressure;BME280_temperature;BME280_humidity;BME280_pressure;Samples;Min_cycle;Max_cycle;Signal;HPM_P1;HPM_P2
2024/03/30 00:00:54;;;;;;;82.53;78.32;;;;;;;;;;5115251;27;20035;-60
2024/03/30 00:03:20;;;;;;;86.13;81.70;;;;;;;;;;5115674;27;20046;-60
2024/03/30 00:05:46;;;;;;;87.07;82.47;;;;;;;;;;5112031;27;20031;-61
2024/03/30 00:08:12;;;;;;;84.43;80.00;;;;;;;;;;5117308;27;20096;-61
2024/03/30 00:10:39;;;;;;;87.82;83.13;;;;;;;;;;5114682;27;20114;-60
2024/03/30 00:13:07;;;;;;;87.47;82.82;;;;;;;;;;5115446;27;20502;-61
2024/03/30 00:15:33;;;;;;;101.03;95.82;;;;;;;;;;5111360;27;20119;-60
2024/03/30 00:17:59;;;;;;;95.95;91.05;;;;;;;;;;5116322;27;20244;-60
2024/03/30 00:20:26;;;;;;;89.32;84.65;;;;;;;;;;5112477;27;20461;-60
2024/03/30 00:22:52;;;;;;;93.22;88.45;;;;;;;;;;5112875;27;20037;-61
2024/03/30 00:25:20;;;;;;;92.30;87.45;;;;;;;;;;5113892;27;20039;-60
2024/03/30 00:27:46;;;;;;;97.55;92.55;;;;;;;;;;5098264;28;20401;-60
2024/03/30 00:30:11;;;;;;;90.40;85.75;;;;;;;;;;5115097;27;20032;-60
2024/03/30 00:32:37;;;;;;;91.50;86.75;;;;;;;;;;5115933;27;20027;-61
2024/03/30 00:35:06;;;;;;;87.25;82.45;;;;;;;;;;5117304;27;20046;-61
2024/03/30 00:37:32;;;;;;;87.38;82.80;;;;;;;;;;5112359;27;20035;-60
2024/03/30 00:39:58;;;;;;;91.35;86.35;;;;;;;;;;5114076;27;20039;-60
2024/03/30 00:42:23;;;;;;;88.05;83.40;;;;;;;;;;5115285;27;20035;-60
2024/03/30 00:44:48;;;;;;;89.15;84.35;;;;;;;;;;5111685;27;20564;-60
2024/03/30 00:47:14;;;;;;;76.55;72.45;;;;;;;;;;5113390;27;20582;-60
2024/03/30 00:49:39;;;;;;;75.32;71.20;;;;;;;;;;5115665;27;20023;-60
2024/03/30 00:52:05;;;;;;;85.57;81.15;;;;;;;;;;5113470;27;20034;-60
2024/03/30 00:54:30;;;;;;;84.07;78.20;;;;;;;;;;5116177;27;20042;-61
2024/03/30 00:56:55;;;;;;;85.45;81.03;;;;;;;;;;5114466;27;20031;-60
2024/03/30 00:59:21;;;;;;;73.82;69.78;;;;;;;;;;5116853;27;20042;-61
2024/03/30 01:01:48;;;;;;;89.22;84.63;;;;;;;;;;5113676;27;20054;-60
2024/03/30 01:04:13;;;;;;;89.72;85.03;;;;;;;;;;5113695;27;20035;-60
2024/03/30 01:06:39;;;;;;;113.93;107.82;;;;;;;;;;5113422;27;20212;-61
2024/03/30 01:09:04;;;;;;;89.80;85.20;;;;;;;;;;5095387;27;20070;-60
2024/03/30 01:11:30;;;;;;;85.50;80.93;;;;;;;;;;5114303;27;20108;-61
2024/03/30 01:13:55;;;;;;;95.40;90.45;;;;;;;;;;5115886;27;20036;-60
2024/03/30 01:16:21;;;;;;;90.97;86.30;;;;;;;;;;5113722;27;20103;-61
2024/03/30 01:18:47;;;;;;;102.90;97.57;;;;;;;;;;5114464;27;20172;-60
2024/03/30 01:21:12;;;;;;;100.55;95.30;;;;;;;;;;5114804;27;20039;-51
2024/03/30 01:23:38;;;;;;;110.68;104.93;;;;;;;;;;5088659;27;20126;-60
2024/03/30 01:26:07;;;;;;;119.03;112.55;;;;;;;;;;5114853;27;20039;-61
2024/03/30 01:28:32;;;;;;;136.07;129.15;;;;;;;;;;5111904;27;20510;-61
2024/03/30 01:30:58;;;;;;;144.00;136.57;;;;;;;;;;5112263;27;20032;-60
2024/03/30 01:33:23;;;;;;;126.80;120.30;;;;;;;;;;5113539;27;20100;-60
2024/03/30 01:35:49;;;;;;;130.50;123.70;;;;;;;;;;5113001;28;20023;-53
2024/03/30 01:38:14;;;;;;;138.55;131.35;;;;;;;;;;5112909;27;20054;-54
2024/03/30 01:40:40;;;;;;;126.90;120.35;;;;;;;;;;5112765;27;20080;-50
2024/03/30 01:43:05;;;;;;;143.70;136.27;;;;;;;;;;5094029;28;20123;-53
2024/03/30 01:45:34;;;;;;;133.45;126.43;;;;;;;;;;5112653;28;20027;-52
2024/03/30 01:48:05;;;;;;;142.52;135.27;;;;;;;;;;5116209;28;20059;-50
2024/03/30 01:50:31;;;;;;;132.30;125.60;;;;;;;;;;5114304;28;20038;-50
2024/03/30 01:53:00;;;;;;;132.75;125.97;;;;;;;;;;5116025;28;20040;-61
2024/03/30 01:55:26;;;;;;;142.65;135.40;;;;;;;;;;5113758;28;20040;-61
2024/03/30 01:57:52;;;;;;;123.85;117.40;;;;;;;;;;5113933;28;20408;-61
2024/03/30 02:00:18;;;;;;;128.32;121.70;;;;;;;;;;5113720;28;20058;-61
2024/03/30 02:02:45;;;;;;;155.55;147.55;;;;;;;;;;5097533;28;20059;-61
2024/03/30 02:05:11;;;;;;;132.65;125.82;;;;;;;;;;5114686;28;20112;-60
2024/03/30 02:07:37;;;;;;;140.43;133.30;;;;;;;;;;5112102;28;20113;-60
2024/03/30 02:10:04;;;;;;;118.57;112.32;;;;;;;;;;5116115;28;20634;-60
2024/03/30 02:12:31;;;;;;;105.60;100.22;;;;;;;;;;5111666;28;20029;-60
2024/03/30 02:14:57;;;;;;;118.97;112.88;;;;;;;;;;5113798;28;20032;-61
2024/03/30 02:17:22;;;;;;;121.38;115.22;;;;;;;;;;5111946;28;20030;-61
2024/03/30 02:19:48;;;;;;;121.57;115.47;;;;;;;;;;5113524;28;20026;-61
2024/03/30 02:22:17;;;;;;;122.13;116.00;;;;;;;;;;5109060;28;20138;-60
2024/03/30 02:24:43;;;;;;;109.53;104.00;;;;;;;;;;5110872;28;20057;-61
2024/03/30 02:27:08;;;;;;;105.22;99.65;;;;;;;;;;5095947;28;20035;-60
2024/03/30 02:29:34;;;;;;;110.88;105.28;;;;;;;;;;5113388;28;20380;-60
2024/03/30 02:31:59;;;;;;;110.13;104.43;;;;;;;;;;5116241;28;20598;-60
2024/03/30 02:34:25;;;;;;;107.30;101.82;;;;;;;;;;5112901;28;20042;-60
2024/03/30 02:36:52;;;;;;;104.20;98.97;;;;;;;;;;5112100;28;20540;-60
2024/03/30 02:39:17;;;;;;;103.53;98.35;;;;;;;;;;5113902;28;20050;-60
2024/03/30 02:41:42;;;;;;;113.57;107.82;;;;;;;;;;5114795;28;20126;-60
2024/03/30 02:44:08;;;;;;;120.70;114.55;;;;;;;;;;5114766;28;20036;-60
2024/03/30 02:46:33;;;;;;;122.00;115.93;;;;;;;;;;5111698;28;20035;-60
2024/03/30 02:48:58;;;;;;;138.85;131.88;;;;;;;;;;5115764;28;20043;-60
2024/03/30 02:51:24;;;;;;;146.95;139.52;;;;;;;;;;5111086;27;20035;-61
2024/03/30 02:53:49;;;;;;;135.95;129.18;;;;;;;;;;5117711;27;20031;-60
2024/03/30 02:56:14;;;;;;;132.43;125.38;;;;;;;;;;5115521;27;20035;-61
2024/03/30 02:58:39;;;;;;;119.57;113.53;;;;;;;;;;5097873;27;20031;-60
2024/03/30 03:01:05;;;;;;;149.27;141.85;;;;;;;;;;5115960;27;20088;-60
2024/03/30 03:03:30;;;;;;;148.30;140.82;;;;;;;;;;5096772;27;20160;-60
2024/03/30 03:05:56;;;;;;;150.68;143.07;;;;;;;;;;5114294;27;20345;-61
2024/03/30 03:08:24;;;;;;;147.85;140.40;;;;;;;;;;5116841;27;20681;-61
2024/03/30 03:10:50;;;;;;;147.20;139.80;;;;;;;;;;5117867;27;20799;-61
2024/03/30 03:13:17;;;;;;;138.98;131.95;;;;;;;;;;5118342;27;20079;-61
2024/03/30 03:15:43;;;;;;;144.65;137.45;;;;;;;;;;5115733;27;20031;-60
2024/03/30 03:18:08;;;;;;;143.82;136.65;;;;;;;;;;5097422;27;20381;-60
2024/03/30 03:20:34;;;;;;;130.15;123.25;;;;;;;;;;5116438;27;20031;-61
2024/03/30 03:23:00;;;;;;;138.98;131.95;;;;;;;;;;5119224;27;20042;-61
2024/03/30 03:25:25;;;;;;;139.77;132.75;;;;;;;;;;5117947;27;20376;-60
2024/03/30 03:27:51;;;;;;;141.50;134.30;;;;;;;;;;5099832;27;20031;-61
2024/03/30 03:30:16;;;;;;;141.77;134.73;;;;;;;;;;5115255;27;20035;-60
2024/03/30 03:32:41;;;;;;;134.68;127.85;;;;;;;;;;5115855;27;20077;-61
2024/03/30 03:35:07;;;;;;;139.88;132.82;;;;;;;;;;5113235;27;20122;-60
2024/03/30 03:37:32;;;;;;;146.15;138.82;;;;;;;;;;5114418;27;20058;-60
2024/03/30 03:39:57;;;;;;;139.32;132.30;;;;;;;;;;5114623;27;20073;-61
2024/03/30 03:42:23;;;;;;;125.22;118.88;;;;;;;;;;5116967;27;20039;-60
2024/03/30 03:44:48;;;;;;;154.27;146.50;;;;;;;;;;5114663;27;20035;-60
2024/03/30 03:47:13;;;;;;;152.40;144.80;;;;;;;;;;5117147;27;20071;-60
2024/03/30 03:49:39;;;;;;;145.27;138.00;;;;;;;;;;5117197;27;20031;-61
2024/03/30 03:52:04;;;;;;;137.82;130.88;;;;;;;;;;5114758;27;20053;-61
2024/03/30 03:54:29;;;;;;;143.13;135.98;;;;;;;;;;5117465;27;20019;-61
2024/03/30 03:56:55;;;;;;;142.07;134.88;;;;;;;;;;5115034;27;20035;-61
2024/03/30 03:59:20;;;;;;;140.10;133.10;;;;;;;;;;5115440;27;20556;-61
2024/03/30 04:01:45;;;;;;;135.13;128.10;;;;;;;;;;5112515;27;20376;-61
2024/03/30 04:04:11;;;;;;;138.40;131.23;;;;;;;;;;5115375;27;20039;-61
2024/03/30 04:06:36;;;;;;;147.80;140.25;;;;;;;;;;5091248;27;20062;-61
2024/03/30 04:09:03;;;;;;;148.60;141.07;;;;;;;;;;5115344;27;20034;-61
2024/03/30 04:11:29;;;;;;;152.02;144.38;;;;;;;;;;5114855;27;20035;-61
2024/03/30 04:13:54;;;;;;;148.88;141.23;;;;;;;;;;5114160;27;20038;-61
2024/03/30 04:16:21;;;;;;;146.43;139.13;;;;;;;;;;5116238;27;20042;-61
2024/03/30 04:18:46;;;;;;;146.93;139.43;;;;;;;;;;5113440;27;20035;-61
2024/03/30 04:21:12;;;;;;;150.85;143.25;;;;;;;;;;5094950;27;20030;-60
2024/03/30 04:23:37;;;;;;;149.52;142.02;;;;;;;;;;5113448;27;20031;-61
2024/03/30 04:26:09;;;;;;;157.82;149.93;;;;;;;;;;5114871;27;20365;-61
2024/03/30 04:28:35;;;;;;;145.55;138.25;;;;;;;;;;5114452;27;20019;-61
2024/03/30 04:31:02;;;;;;;140.10;133.02;;;;;;;;;;5115101;27;20043;-61
2024/03/30 04:33:28;;;;;;;130.23;123.78;;;;;;;;;;5098879;27;20027;-61
2024/03/30 04:36:01;;;;;;;132.18;125.47;;;;;;;;;;5112846;27;20050;-61
2024/03/30 04:38:29;;;;;;;132.43;125.82;;;;;;;;;;5097053;27;20398;-61
2024/03/30 04:40:56;;;;;;;133.05;126.38;;;;;;;;;;5113739;27;20142;-61
2024/03/30 04:43:21;;;;;;;127.60;121.25;;;;;;;;;;5115421;27;20050;-61
2024/03/30 04:45:46;;;;;;;135.00;128.20;;;;;;;;;;5111705;27;20027;-61
2024/03/30 04:48:12;;;;;;;136.85;129.93;;;;;;;;;;5117082;27;20024;-61
2024/03/30 04:50:37;;;;;;;139.70;131.18;;;;;;;;;;5093012;28;20039;-61
2024/03/30 04:53:02;;;;;;;136.32;128.32;;;;;;;;;;5114716;27;20034;-61
2024/03/30 04:55:28;;;;;;;131.20;124.65;;;;;;;;;;5117116;27;20027;-61
2024/03/30 04:57:53;;;;;;;135.52;128.45;;;;;;;;;;5093362;27;20050;-60
2024/03/30 05:00:19;;;;;;;123.50;117.30;;;;;;;;;;5112264;27;20047;-60
2024/03/30 05:02:44;;;;;;;128.25;121.85;;;;;;;;;;5114569;27;20078;-61
2024/03/30 05:05:09;;;;;;;120.00;114.00;;;;;;;;;;5116168;27;20055;-60
2024/03/30 05:07:35;;;;;;;109.18;103.55;;;;;;;;;;5111497;27;20028;-60
2024/03/30 05:10:00;;;;;;;129.40;122.88;;;;;;;;;;5116513;27;20039;-60
2024/03/30 05:12:25;;;;;;;133.35;126.47;;;;;;;;;;5116024;27;20081;-60
2024/03/30 05:14:51;;;;;;;138.88;131.85;;;;;;;;;;5095764;27;20024;-60
2024/03/30 05:17:17;;;;;;;127.03;120.60;;;;;;;;;;5096370;27;20057;-61
2024/03/30 05:22:26;;;;;;;130.77;124.18;;;;;;;;;;5112638;27;20039;-60
2024/03/30 05:24:52;;;;;;;131.27;124.68;;;;;;;;;;5111834;27;20083;-60
2024/03/30 05:27:17;;;;;;;133.30;126.60;;;;;;;;;;5111910;27;20027;-61
2024/03/30 05:29:43;;;;;;;138.90;131.95;;;;;;;;;;5109978;27;20038;-60
2024/03/30 05:32:08;;;;;;;147.35;139.93;;;;;;;;;;5111291;27;20032;-60
2024/03/30 05:34:33;;;;;;;134.02;127.20;;;;;;;;;;5112233;27;20038;-60
2024/03/30 05:36:58;;;;;;;143.50;136.32;;;;;;;;;;5110133;27;20027;-61
2024/03/30 05:39:24;;;;;;;121.00;114.95;;;;;;;;;;5113773;28;20032;-60
2024/03/30 05:41:49;;;;;;;133.07;126.43;;;;;;;;;;5109429;28;20040;-60
2024/03/30 05:44:14;;;;;;;138.02;131.02;;;;;;;;;;5113426;28;20111;-60
2024/03/30 05:46:40;;;;;;;121.47;115.32;;;;;;;;;;5112760;28;20045;-60
2024/03/30 05:49:05;;;;;;;145.02;137.73;;;;;;;;;;5093944;28;20043;-61
2024/03/30 05:51:30;;;;;;;124.28;116.68;;;;;;;;;;5111012;28;21232;-60
2024/03/30 05:53:56;;;;;;;128.98;122.57;;;;;;;;;;5111782;28;20489;-61
2024/03/30 05:56:21;;;;;;;138.27;130.82;;;;;;;;;;5115104;28;20049;-60
2024/03/30 05:58:46;;;;;;;133.57;126.50;;;;;;;;;;5112647;28;20039;-61
2024/03/30 06:01:12;;;;;;;132.98;126.35;;;;;;;;;;5094359;28;20051;-60
2024/03/30 06:03:37;;;;;;;140.18;133.13;;;;;;;;;;5112275;28;20041;-60
2024/03/30 06:06:03;;;;;;;133.18;126.50;;;;;;;;;;5113658;28;20051;-61
2024/03/30 06:08:28;;;;;;;133.43;126.55;;;;;;;;;;5113033;28;20047;-61
2024/03/30 06:10:53;;;;;;;153.77;145.93;;;;;;;;;;5112359;28;20020;-61
2024/03/30 06:13:19;;;;;;;130.32;123.22;;;;;;;;;;5115878;28;20032;-61
2024/03/30 06:15:44;;;;;;;134.30;127.43;;;;;;;;;;5110703;28;20043;-61
2024/03/30 06:18:09;;;;;;;151.40;143.82;;;;;;;;;;5114650;28;20046;-61
2024/03/30 06:20:35;;;;;;;153.65;145.90;;;;;;;;;;5094615;28;20516;-61
2024/03/30 06:23:00;;;;;;;159.63;151.57;;;;;;;;;;5112738;28;20046;-62
2024/03/30 06:25:25;;;;;;;168.13;159.60;;;;;;;;;;5114153;27;20035;-62
2024/03/30 06:27:51;;;;;;;175.48;166.65;;;;;;;;;;5114645;27;20046;-61
2024/03/30 06:30:16;;;;;;;164.13;155.73;;;;;;;;;;5116982;27;20036;-61
2024/03/30 06:32:42;;;;;;;163.90;155.63;;;;;;;;;;5116325;27;20028;-61
2024/03/30 06:35:07;;;;;;;162.48;153.82;;;;;;;;;;5120193;27;20077;-61
2024/03/30 06:37:32;;;;;;;145.88;138.52;;;;;;;;;;5116572;27;20035;-61
2024/03/30 06:45:25;;;;;;;150.68;143.05;;;;;;;;;;5116559;27;20031;-61
2024/03/30 06:47:51;;;;;;;145.43;138.15;;;;;;;;;;5117462;27;20023;-61
2024/03/30 06:50:17;;;;;;;150.45;142.82;;;;;;;;;;5116816;27;20089;-60
2024/03/30 06:52:42;;;;;;;153.73;145.93;;;;;;;;;;5117565;27;20673;-60
2024/03/30 06:55:08;;;;;;;153.95;146.23;;;;;;;;;;5116827;27;20062;-61
2024/03/30 06:57:34;;;;;;;168.02;159.65;;;;;;;;;;5116855;27;20364;-60
2024/03/30 07:00:01;;;;;;;148.30;140.90;;;;;;;;;;5117486;27;20031;-61
2024/03/30 07:02:26;;;;;;;148.07;140.65;;;;;;;;;;5119412;27;20041;-61
2024/03/30 07:04:52;;;;;;;144.40;137.07;;;;;;;;;;5097178;27;20035;-60
2024/03/30 07:07:17;;;;;;;125.78;119.40;;;;;;;;;;5119242;27;20030;-60
2024/03/30 07:09:43;;;;;;;137.88;130.82;;;;;;;;;;5120261;27;20019;-61
2024/03/30 07:12:08;;;;;;;163.00;154.73;;;;;;;;;;5115967;27;20454;-61
2024/03/30 07:14:33;;;;;;;173.63;164.95;;;;;;;;;;5117433;27;20038;-60
2024/03/30 07:17:00;;;;;;;186.18;176.82;;;;;;;;;;5116777;27;20042;-61
2024/03/30 07:19:25;;;;;;;191.18;181.20;;;;;;;;;;5114810;27;20034;-60
2024/03/30 07:21:51;;;;;;;190.52;181.02;;;;;;;;;;5112078;27;20031;-63
2024/03/30 07:24:17;;;;;;;196.48;186.68;;;;;;;;;;5117142;27;20471;-61
2024/03/30 07:26:46;;;;;;;191.23;181.43;;;;;;;;;;5116694;27;20046;-61
2024/03/30 07:29:12;;;;;;;182.18;172.57;;;;;;;;;;5079290;28;20142;-61
2024/03/30 07:31:37;;;;;;;177.77;168.85;;;;;;;;;;5116388;27;20111;-62
2024/03/30 07:34:02;;;;;;;178.77;169.77;;;;;;;;;;5115137;27;20028;-61
2024/03/30 07:36:28;;;;;;;186.48;176.93;;;;;;;;;;5115416;27;20039;-61
2024/03/30 07:38:53;;;;;;;177.43;168.27;;;;;;;;;;5115782;27;20383;-61
2024/03/30 07:41:18;;;;;;;183.00;173.75;;;;;;;;;;5117421;27;20419;-61
2024/03/30 07:43:44;;;;;;;201.32;190.77;;;;;;;;;;5117268;27;20468;-60
2024/03/30 07:46:09;;;;;;;201.18;191.13;;;;;;;;;;5113875;27;20101;-60
2024/03/30 07:48:34;;;;;;;200.40;190.23;;;;;;;;;;5117651;27;20031;-61
2024/03/30 07:51:01;;;;;;;202.23;192.00;;;;;;;;;;5095556;27;20031;-61
2024/03/30 07:53:27;;;;;;;200.75;190.75;;;;;;;;;;5114291;27;20027;-61
2024/03/30 07:55:52;;;;;;;186.15;176.82;;;;;;;;;;5118685;27;20529;-61
2024/03/30 07:58:17;;;;;;;193.85;184.18;;;;;;;;;;5117948;27;20654;-61
2024/03/30 08:00:42;;;;;;;193.90;184.25;;;;;;;;;;5119479;27;20031;-61
2024/03/30 08:03:08;;;;;;;193.30;181.80;;;;;;;;;;5116248;27;20060;-61
2024/03/30 08:05:33;;;;;;;184.48;175.05;;;;;;;;;;5113322;27;20031;-61
2024/03/30 08:07:59;;;;;;;177.13;168.18;;;;;;;;;;5113783;27;20477;-62
2024/03/30 08:10:24;;;;;;;176.65;167.43;;;;;;;;;;5115358;27;20091;-61
2024/03/30 08:12:50;;;;;;;212.95;202.35;;;;;;;;;;5114463;27;21236;-60
2024/03/30 08:15:16;;;;;;;201.07;190.65;;;;;;;;;;5112620;27;20035;-62
2024/03/30 08:17:41;;;;;;;202.27;192.15;;;;;;;;;;5114042;27;20516;-61
2024/03/30 08:20:08;;;;;;;184.90;175.27;;;;;;;;;;5112684;27;20054;-61
2024/03/30 08:22:34;;;;;;;202.77;192.60;;;;;;;;;;5113464;27;20097;-61
2024/03/30 08:25:00;;;;;;;221.98;210.70;;;;;;;;;;5112720;27;20461;-61
2024/03/30 08:27:25;;;;;;;206.00;195.63;;;;;;;;;;5096581;27;20080;-60
2024/03/30 08:29:50;;;;;;;205.65;195.40;;;;;;;;;;5114693;27;20585;-61
2024/03/30 08:32:16;;;;;;;208.98;197.70;;;;;;;;;;5113054;27;20032;-61
2024/03/30 08:34:41;;;;;;;236.50;224.80;;;;;;;;;;5116078;27;20043;-62
2024/03/30 08:37:06;;;;;;;226.45;215.15;;;;;;;;;;5114287;27;20042;-61
2024/03/30 08:39:31;;;;;;;211.77;201.25;;;;;;;;;;5115970;27;20421;-61
2024/03/30 08:41:57;;;;;;;214.32;203.75;;;;;;;;;;5114619;27;20417;-61
2024/03/30 08:44:23;;;;;;;219.13;207.68;;;;;;;;;;5116126;27;20139;-62
2024/03/30 08:46:48;;;;;;;226.90;215.65;;;;;;;;;;5116449;27;20438;-60
2024/03/30 08:49:14;;;;;;;222.05;210.65;;;;;;;;;;5112372;27;20023;-60
2024/03/30 08:51:39;;;;;;;227.77;216.48;;;;;;;;;;5114543;27;20041;-60
2024/03/30 08:54:06;;;;;;;227.95;215.88;;;;;;;;;;5113940;27;20031;-59
2024/03/30 08:56:32;;;;;;;228.02;216.63;;;;;;;;;;5113609;27;20065;-60
2024/03/30 08:58:58;;;;;;;225.82;213.68;;;;;;;;;;5115656;27;20096;-59
2024/03/30 09:01:23;;;;;;;215.45;204.57;;;;;;;;;;5113151;27;20465;-59
2024/03/30 09:03:49;;;;;;;221.70;210.23;;;;;;;;;;5113840;27;20035;-60
2024/03/30 09:06:15;;;;;;;217.55;205.30;;;;;;;;;;5113485;27;20123;-59
2024/03/30 09:08:41;;;;;;;232.65;221.07;;;;;;;;;;5111511;27;20715;-60
2024/03/30 09:11:07;;;;;;;252.15;239.23;;;;;;;;;;5112706;27;20058;-60
2024/03/30 09:13:32;;;;;;;235.50;223.80;;;;;;;;;;5114461;27;20493;-59
2024/03/30 09:15:57;;;;;;;219.23;208.30;;;;;;;;;;5109560;27;20039;-59
2024/03/30 09:18:23;;;;;;;201.32;191.23;;;;;;;;;;5115922;27;20141;-59
2024/03/30 09:20:49;;;;;;;205.20;194.93;;;;;;;;;;5111670;27;20036;-59
2024/03/30 09:23:14;;;;;;;215.10;203.70;;;;;;;;;;5112372;27;20047;-59
2024/03/30 09:25:40;;;;;;;237.60;225.50;;;;;;;;;;5114831;27;20039;-59
2024/03/30 09:28:06;;;;;;;221.35;210.35;;;;;;;;;;5113835;27;20379;-59
2024/03/30 09:30:31;;;;;;;227.50;216.05;;;;;;;;;;5111861;27;20072;-59
2024/03/30 09:32:57;;;;;;;234.85;223.20;;;;;;;;;;5113382;27;20035;-59
2024/03/30 09:35:22;;;;;;;206.57;196.25;;;;;;;;;;5111914;27;20092;-60
2024/03/30 09:37:47;;;;;;;201.50;191.48;;;;;;;;;;5113412;27;20027;-59
2024/03/30 09:40:13;;;;;;;206.93;196.27;;;;;;;;;;5111491;27;20191;-59
2024/03/30 09:42:41;;;;;;;213.75;202.63;;;;;;;;;;5113220;27;20038;-60
2024/03/30 09:45:10;;;;;;;226.20;214.95;;;;;;;;;;5113882;28;20035;-60
2024/03/30 09:47:40;;;;;;;216.77;205.95;;;;;;;;;;5113630;28;20019;-59
2024/03/30 09:50:08;;;;;;;217.50;206.70;;;;;;;;;;5111967;28;20512;-60
2024/03/30 09:52:36;;;;;;;227.27;215.93;;;;;;;;;;5113976;28;20139;-59
2024/03/30 09:55:08;;;;;;;235.35;223.65;;;;;;;;;;5110998;28;20031;-60
2024/03/30 09:57:35;;;;;;;206.90;195.10;;;;;;;;;;5114644;28;20043;-59
2024/03/30 10:00:00;;;;;;;177.15;168.07;;;;;;;;;;5115099;27;20719;-59
2024/03/30 10:02:25;;;;;;;229.07;217.77;;;;;;;;;;5116621;27;20051;-60
2024/03/30 10:04:52;;;;;;;233.85;222.13;;;;;;;;;;5116916;27;20499;-60
2024/03/30 10:07:24;;;;;;;222.63;211.48;;;;;;;;;;5120166;27;20119;-60
2024/03/30 10:09:57;;;;;;;177.38;168.48;;;;;;;;;;5118093;27;20096;-60
2024/03/30 10:12:32;;;;;;;197.50;187.60;;;;;;;;;;5116517;27;20046;-60
2024/03/30 10:15:03;;;;;;;223.27;212.00;;;;;;;;;;5097709;27;20031;-60
2024/03/30 10:17:29;;;;;;;;;;;;;;;;;;5117366;27;20035;-59
2024/03/30 10:19:56;;;;;;;147.90;140.13;;;;;;;;;;5115662;27;19918;-60
2024/03/30 10:22:22;;;;;;;109.90;103.68;;;;;;;;;;5116214;27;20499;-61
2024/03/30 10:24:49;;;;;;;87.95;83.20;;;;;;;;;;5118285;27;20076;-61
2024/03/30 10:27:14;;;;;;;55.05;52.00;;;;;;;;;;5115638;27;20035;-60
2024/03/30 10:29:43;;;;;;;57.05;53.80;;;;;;;;;;5117043;27;20547;-60
2024/03/30 10:32:09;;;;;;;41.20;39.00;;;;;;;;;;5115158;27;20096;-59
2024/03/30 10:34:34;;;;;;;71.63;67.88;;;;;;;;;;5117804;27;20039;-61
2024/03/30 10:37:00;;;;;;;87.15;82.63;;;;;;;;;;5118192;27;20035;-59
2024/03/30 10:39:28;;;;;;;88.03;83.28;;;;;;;;;;5118732;27;20069;-60
2024/03/30 10:41:55;;;;;;;108.90;103.25;;;;;;;;;;5120030;27;20031;-59
2024/03/30 10:44:28;;;;;;;108.43;102.55;;;;;;;;;;5114439;27;20101;-59
2024/03/30 10:46:54;;;;;;;65.97;62.47;;;;;;;;;;5122139;27;20076;-61
2024/03/30 10:49:20;;;;;;;71.88;68.13;;;;;;;;;;5118887;27;20059;-59
2024/03/30 10:51:46;;;;;;;55.53;52.70;;;;;;;;;;5116946;27;20062;-60
2024/03/30 10:54:18;;;;;;;57.05;54.13;;;;;;;;;;5116879;27;20455;-60
2024/03/30 10:56:53;;;;;;;79.50;75.55;;;;;;;;;;5114464;27;21067;-61
2024/03/30 10:59:20;;;;;;;62.75;59.22;;;;;;;;;;5111929;27;20034;-61
2024/03/30 11:01:48;;;;;;;76.70;72.75;;;;;;;;;;5114883;27;20055;-61
2024/03/30 11:04:18;;;;;;;95.93;91.10;;;;;;;;;;5114929;27;20105;-61
2024/03/30 11:06:45;;;;;;;107.97;102.57;;;;;;;;;;5114178;27;20038;-61
2024/03/30 11:09:12;;;;;;;106.57;100.72;;;;;;;;;;5116734;27;20265;-61
2024/03/30 11:11:38;;;;;;;75.90;71.90;;;;;;;;;;5115428;27;20060;-61
2024/03/30 11:14:03;;;;;;;73.47;69.68;;;;;;;;;;5115325;27;20036;-61
2024/03/30 11:16:36;;;;;;;63.65;60.40;;;;;;;;;;5114944;27;20027;-61
2024/03/30 11:19:10;;;;;;;56.80;53.63;;;;;;;;;;5089905;27;20068;-61
2024/03/30 11:21:45;;;;;;;73.35;69.45;;;;;;;;;;5112937;27;20468;-60
2024/03/30 11:24:14;;;;;;;51.47;48.78;;;;;;;;;;5116310;27;20488;-61
2024/03/30 11:26:49;;;;;;;77.22;73.28;;;;;;;;;;5115991;27;20046;-59
2024/03/30 11:29:39;;;;;;;60.13;56.55;;;;;;;;;;5111710;27;20110;-60
2024/03/30 11:32:12;;;;;;;52.47;49.80;;;;;;;;;;5113104;27;20019;-61
2024/03/30 11:35:01;;;;;;;51.33;48.60;;;;;;;;;;5113498;27;20445;-59
2024/03/30 11:37:28;;;;;;;70.80;66.88;;;;;;;;;;5113666;27;20036;-60
2024/03/30 11:40:15;;;;;;;79.05;74.80;;;;;;;;;;5096996;27;20027;-59
2024/03/30 11:43:18;;;;;;;105.13;99.80;;;;;;;;;;5116353;27;20085;-61
2024/03/30 11:45:44;;;;;;;61.55;58.35;;;;;;;;;;5115702;27;20127;-60
2024/03/30 11:48:11;;;;;;;58.90;55.65;;;;;;;;;;5107116;27;20352;-60
2024/03/30 11:50:37;;;;;;;50.88;48.28;;;;;;;;;;5112048;27;20027;-60
2024/03/30 11:53:14;;;;;;;53.47;50.30;;;;;;;;;;5094120;27;20034;-61
2024/03/30 11:55:43;;;;;;;63.75;60.47;;;;;;;;;;5113251;27;20304;-60
2024/03/30 11:58:25;;;;;;;133.15;124.40;;;;;;;;;;5109889;27;20036;-59
2024/03/30 12:00:57;;;;;;;100.25;95.10;;;;;;;;;;5112765;27;20583;-61
2024/03/30 12:03:28;;;;;;;75.28;70.82;;;;;;;;;;5112201;27;20066;-59
2024/03/30 12:05:55;;;;;;;62.90;59.65;;;;;;;;;;5112021;27;20122;-60
2024/03/30 12:08:30;;;;;;;68.10;64.68;;;;;;;;;;5111916;27;20035;-59
2024/03/30 12:10:58;;;;;;;45.80;43.22;;;;;;;;;;5112945;27;20114;-60
2024/03/30 12:13:28;;;;;;;56.13;53.25;;;;;;;;;;5109292;27;20024;-60
2024/03/30 12:15:55;;;;;;;45.40;41.55;;;;;;;;;;5113085;27;20047;-59
2024/03/30 12:18:21;;;;;;;44.92;42.50;;;;;;;;;;5112221;27;20035;-60
2024/03/30 12:20:50;;;;;;;43.80;41.58;;;;;;;;;;5113166;27;20088;-59
2024/03/30 12:23:18;;;;;;;46.42;44.08;;;;;;;;;;5115641;27;20046;-60
2024/03/30 12:25:46;;;;;;;44.97;42.55;;;;;;;;;;5112861;27;20035;-59
2024/03/30 12:28:12;;;;;;;45.20;42.75;;;;;;;;;;5112638;27;20063;-60
2024/03/30 12:30:45;;;;;;;46.83;44.33;;;;;;;;;;5117527;27;20066;-59
2024/03/30 12:33:12;;;;;;;45.83;43.35;;;;;;;;;;5112948;27;20134;-59
2024/03/30 12:35:38;;;;;;;51.00;48.08;;;;;;;;;;5111777;27;20023;-59
2024/03/30 12:38:04;;;;;;;50.35;47.05;;;;;;;;;;5110304;27;20037;-59
2024/03/30 12:40:34;;;;;;;52.25;49.30;;;;;;;;;;5114448;27;20027;-59
2024/03/30 12:43:00;;;;;;;49.63;47.10;;;;;;;;;;5113720;27;20027;-59
2024/03/30 12:45:26;;;;;;;51.33;48.38;;;;;;;;;;5097293;27;20046;-60
2024/03/30 12:47:54;;;;;;;51.88;49.17;;;;;;;;;;5113571;27;20442;-58
2024/03/30 12:50:20;;;;;;;48.55;45.88;;;;;;;;;;5112426;27;20038;-62
2024/03/30 12:52:46;;;;;;;50.85;48.15;;;;;;;;;;5113642;27;20024;-58
2024/03/30 12:55:12;;;;;;;52.35;48.55;;;;;;;;;;5110851;27;20108;-59
2024/03/30 12:57:38;;;;;;;50.00;47.40;;;;;;;;;;5112952;27;20027;-59
2024/03/30 13:00:11;;;;;;;47.33;44.42;;;;;;;;;;5116513;27;20065;-59
2024/03/30 13:02:36;;;;;;;45.20;42.45;;;;;;;;;;5111318;27;20039;-59
2024/03/30 13:05:08;;;;;;;43.20;40.70;;;;;;;;;;5111946;27;20061;-60
2024/03/30 13:07:33;;;;;;;45.90;42.53;;;;;;;;;;5112545;27;20084;-60
2024/03/30 13:10:08;;;;;;;45.22;42.35;;;;;;;;;;5114866;27;20067;-59
2024/03/30 13:12:34;;;;;;;43.22;40.75;;;;;;;;;;5112989;27;20042;-59
2024/03/30 13:15:00;;;;;;;46.03;43.55;;;;;;;;;;5114868;27;20114;-60
2024/03/30 13:17:28;;;;;;;46.33;43.92;;;;;;;;;;5115771;27;20490;-59
2024/03/30 13:19:53;;;;;;;45.35;43.05;;;;;;;;;;5109765;27;20024;-60
2024/03/30 13:22:19;;;;;;;46.13;43.63;;;;;;;;;;5111290;27;20035;-59
2024/03/30 13:24:44;;;;;;;53.40;50.55;;;;;;;;;;5112173;27;20038;-60
2024/03/30 13:27:10;;;;;;;56.35;53.35;;;;;;;;;;5116281;27;20027;-60
2024/03/30 13:29:39;;;;;;;49.58;46.65;;;;;;;;;;5110752;27;20485;-60
2024/03/30 13:32:07;;;;;;;48.45;45.95;;;;;;;;;;5112296;27;20035;-61
2024/03/30 13:34:32;;;;;;;67.90;64.50;;;;;;;;;;5111862;27;20039;-60
2024/03/30 13:36:58;;;;;;;89.65;85.00;;;;;;;;;;5109482;27;20032;-60
2024/03/30 13:39:23;;;;;;;91.72;87.07;;;;;;;;;;5113144;27;20039;-60
2024/03/30 13:41:48;;;;;;;88.88;83.90;;;;;;;;;;5112040;27;20034;-60
2024/03/30 13:44:14;;;;;;;65.93;62.50;;;;;;;;;;5112241;27;20039;-59
2024/03/30 13:46:39;;;;;;;78.63;74.63;;;;;;;;;;5111414;27;20032;-60
2024/03/30 13:49:04;;;;;;;66.70;62.15;;;;;;;;;;5111304;28;20050;-59
2024/03/30 13:51:30;;;;;;;76.15;72.30;;;;;;;;;;5114182;28;20123;-60
2024/03/30 13:53:55;;;;;;;65.72;62.10;;;;;;;;;;5094097;28;20050;-59
2024/03/30 13:56:20;;;;;;;66.82;63.35;;;;;;;;;;5116306;28;20573;-60
2024/03/30 13:58:46;;;;;;;80.15;74.95;;;;;;;;;;5108856;28;20046;-60
2024/03/30 14:01:11;;;;;;;110.30;104.63;;;;;;;;;;5110553;28;20053;-60
2024/03/30 14:03:37;;;;;;;71.25;66.82;;;;;;;;;;5110305;28;20036;-59
2024/03/30 14:06:04;;;;;;;75.15;71.30;;;;;;;;;;5114099;28;20089;-60